createdAt,value
2017-04-21T00:00:41.982Z,0
2017-04-21T00:01:51.517Z,0
2017-04-21T00:03:00.415Z,0
2017-04-21T00:04:09.961Z,0
2017-04-21T00:05:19.492Z,0
2017-04-21T00:06:29.031Z,0
2017-04-21T00:07:38.248Z,0
2017-04-21T00:08:47.497Z,0
2017-04-21T00:09:56.433Z,0
2017-04-21T00:11:05.343Z,0
2017-04-21T00:12:14.246Z,0
2017-04-21T00:13:23.502Z,0
2017-04-21T00:14:32.152Z,0
2017-04-21T00:15:40.732Z,0
2017-04-21T00:16:50.269Z,0
2017-04-21T00:17:59.164Z,0
2017-04-21T00:19:08.065Z,0
2017-04-21T00:20:17.285Z,0
2017-04-21T00:21:26.825Z,0
2017-04-21T00:22:36.175Z,0
2017-04-21T00:23:45.710Z,0
2017-04-21T00:24:54.652Z,0
2017-04-21T00:26:04.185Z,0
2017-04-21T00:27:13.410Z,0
2017-04-21T00:28:22.626Z,0
2017-04-21T00:29:31.211Z,0
2017-04-21T00:30:40.110Z,0
2017-04-21T00:31:48.820Z,0
2017-04-21T00:32:58.043Z,0
2017-04-21T00:34:07.903Z,0
2017-04-21T00:35:16.805Z,0
2017-04-21T00:36:26.020Z,0
2017-04-21T00:37:34.609Z,0
2017-04-21T00:38:43.827Z,0
2017-04-21T00:39:52.580Z,0
2017-04-21T00:41:01.814Z,0
2017-04-21T00:42:11.039Z,0
2017-04-21T00:43:19.949Z,0
2017-04-21T00:44:28.893Z,0
2017-04-21T00:45:37.825Z,0
2017-04-21T00:46:46.731Z,0
2017-04-21T00:47:55.652Z,0
2017-04-21T00:49:04.641Z,0
2017-04-21T00:50:13.553Z,0
2017-04-21T00:51:23.083Z,0
2017-04-21T00:52:32.093Z,0
2017-04-21T00:53:41.335Z,0
2017-04-21T00:54:49.920Z,0
2017-04-21T00:55:58.844Z,0
2017-04-21T00:57:07.759Z,0
2017-04-21T00:58:16.978Z,0
2017-04-21T00:59:26.059Z,0
2017-04-21T01:00:35.300Z,0
2017-04-21T01:01:44.461Z,0
2017-04-21T01:02:53.782Z,0
2017-04-21T01:04:03.238Z,0
2017-04-21T01:05:12.781Z,0
2017-04-21T01:06:22.023Z,0
2017-04-21T01:07:31.409Z,0
2017-04-21T01:08:42.113Z,0
2017-04-21T01:09:51.017Z,0
2017-04-21T01:11:00.564Z,0
2017-04-21T01:12:10.099Z,0
2017-04-21T01:13:19.320Z,0
2017-04-21T01:14:29.189Z,0
2017-04-21T01:15:38.097Z,0
2017-04-21T01:16:47.000Z,0
2017-04-21T01:17:55.597Z,0
2017-04-21T01:19:05.132Z,0
2017-04-21T01:20:14.662Z,0
2017-04-21T01:21:23.878Z,0
2017-04-21T01:22:32.778Z,0
2017-04-21T01:23:42.317Z,0
2017-04-21T01:24:50.906Z,0
2017-04-21T01:26:00.127Z,0
2017-04-21T01:27:09.979Z,0
2017-04-21T01:28:19.511Z,0
2017-04-21T01:29:28.413Z,0
2017-04-21T01:30:37.318Z,0
2017-04-21T01:31:46.218Z,0
2017-04-21T01:32:55.121Z,0
2017-04-21T01:34:04.353Z,0
2017-04-21T01:35:13.249Z,0
2017-04-21T01:36:22.472Z,0
2017-04-21T01:37:31.382Z,0
2017-04-21T01:38:40.599Z,0
2017-04-21T01:39:49.812Z,0
2017-04-21T01:40:58.720Z,0
2017-04-21T01:42:07.302Z,0
2017-04-21T01:43:15.889Z,0
2017-04-21T01:44:25.434Z,0
2017-04-21T01:45:34.332Z,0
2017-04-21T01:46:42.909Z,0
2017-04-21T01:47:52.130Z,0
2017-04-21T01:49:01.036Z,0
2017-04-21T01:50:10.255Z,0
2017-04-21T01:51:19.797Z,0
2017-04-21T01:52:28.694Z,0
2017-04-21T01:53:38.233Z,0
2017-04-21T01:54:46.824Z,0
2017-04-21T01:55:56.045Z,0
2017-04-21T01:57:05.898Z,0
2017-04-21T01:58:15.430Z,0
2017-04-21T01:59:24.651Z,0
2017-04-21T02:00:33.870Z,0
2017-04-21T02:01:42.780Z,0
2017-04-21T02:02:51.690Z,0
2017-04-21T02:04:01.227Z,0
2017-04-21T02:05:10.137Z,0
2017-04-21T02:06:19.362Z,0
2017-04-21T02:07:28.583Z,0
2017-04-21T02:08:37.480Z,0
2017-04-21T02:09:46.695Z,0
2017-04-21T02:10:55.600Z,0
2017-04-21T02:12:05.119Z,0
2017-04-21T02:13:14.337Z,0
2017-04-21T02:14:22.921Z,0
2017-04-21T02:15:31.733Z,0
2017-04-21T02:16:40.959Z,0
2017-04-21T02:17:50.502Z,0
2017-04-21T02:19:00.042Z,0
2017-04-21T02:20:09.260Z,0
2017-04-21T02:21:18.163Z,0
2017-04-21T02:22:27.384Z,0
2017-04-21T02:23:36.615Z,0
2017-04-21T02:24:45.200Z,0
2017-04-21T02:25:54.095Z,0
2017-04-21T02:27:03.307Z,0
2017-04-21T02:28:12.213Z,0
2017-04-21T02:29:21.436Z,0
2017-04-21T02:30:30.330Z,0
2017-04-21T02:31:39.233Z,0
2017-04-21T02:32:48.140Z,0
2017-04-21T02:33:57.685Z,0
2017-04-21T02:35:06.904Z,0
2017-04-21T02:36:16.125Z,0
2017-04-21T02:37:25.026Z,0
2017-04-21T02:38:33.937Z,0
2017-04-21T02:39:43.195Z,0
2017-04-21T02:40:52.094Z,0
2017-04-21T02:42:00.996Z,0
2017-04-21T02:43:09.903Z,0
2017-04-21T02:44:19.442Z,0
2017-04-21T02:45:28.341Z,0
2017-04-21T02:46:37.239Z,0
2017-04-21T02:47:46.146Z,0
2017-04-21T02:48:55.363Z,0
2017-04-21T02:50:04.264Z,0
2017-04-21T02:51:13.486Z,0
2017-04-21T02:52:22.388Z,0
2017-04-21T02:53:31.609Z,0
2017-04-21T02:54:40.832Z,0
2017-04-21T02:55:50.060Z,0
2017-04-21T02:56:58.956Z,0
2017-04-21T02:58:08.168Z,0
2017-04-21T02:59:17.067Z,0
2017-04-21T03:00:26.283Z,0
2017-04-21T03:01:34.867Z,0
2017-04-21T03:02:44.409Z,0
2017-04-21T03:03:53.310Z,0
2017-04-21T03:05:02.526Z,0
2017-04-21T03:06:11.431Z,0
2017-04-21T03:07:20.326Z,0
2017-04-21T03:08:29.227Z,0
2017-04-21T03:09:38.451Z,0
2017-04-21T03:10:47.356Z,0
2017-04-21T03:11:56.573Z,0
2017-04-21T03:13:05.484Z,0
2017-04-21T03:14:14.711Z,0
2017-04-21T03:15:23.641Z,0
2017-04-21T03:16:32.862Z,0
2017-04-21T03:17:41.762Z,0
2017-04-21T03:18:50.678Z,0
2017-04-21T03:19:59.903Z,0
2017-04-21T03:21:09.123Z,0
2017-04-21T03:22:18.027Z,0
2017-04-21T03:23:26.942Z,0
2017-04-21T03:24:36.175Z,0
2017-04-21T03:25:44.756Z,0
2017-04-21T03:26:53.974Z,0
2017-04-21T03:28:03.517Z,0
2017-04-21T03:29:13.253Z,0
2017-04-21T03:30:22.299Z,0
2017-04-21T03:31:31.524Z,0
2017-04-21T03:32:40.749Z,0
2017-04-21T03:33:49.979Z,0
2017-04-21T03:34:59.611Z,0
2017-04-21T03:36:08.238Z,0
2017-04-21T03:37:17.772Z,0
2017-04-21T03:38:26.993Z,0
2017-04-21T03:39:36.220Z,0
2017-04-21T03:40:45.434Z,0
2017-04-21T03:41:54.333Z,0
2017-04-21T03:43:03.654Z,0
2017-04-21T03:44:12.575Z,0
2017-04-21T03:45:22.436Z,0
2017-04-21T03:46:31.808Z,0
2017-04-21T03:47:41.066Z,0
2017-04-21T03:48:49.713Z,0
2017-04-21T03:49:58.957Z,0
2017-04-21T03:51:07.596Z,0
2017-04-21T03:52:17.308Z,0
2017-04-21T03:53:26.213Z,0
2017-04-21T03:54:34.835Z,0
2017-04-21T03:55:43.938Z,0
2017-04-21T03:56:53.463Z,28
2017-04-21T03:58:02.437Z,44
2017-04-21T03:59:11.660Z,52
2017-04-21T04:00:20.557Z,56
2017-04-21T04:01:29.824Z,64
2017-04-21T04:02:39.366Z,64
2017-04-21T04:03:48.917Z,60
2017-04-21T04:04:58.150Z,68
2017-04-21T04:06:06.733Z,68
2017-04-21T04:07:15.319Z,68
2017-04-21T04:08:24.227Z,68
2017-04-21T04:09:33.446Z,68
2017-04-21T04:10:42.978Z,68
2017-04-21T04:11:51.875Z,76
2017-04-21T04:13:01.098Z,72
2017-04-21T04:14:10.320Z,76
2017-04-21T04:15:19.221Z,80
2017-04-21T04:16:28.480Z,88
2017-04-21T04:17:37.759Z,92
2017-04-21T04:18:46.674Z,92
2017-04-21T04:19:55.631Z,96
2017-04-21T04:21:04.537Z,100
2017-04-21T04:22:14.119Z,104
2017-04-21T04:23:23.670Z,112
2017-04-21T04:24:32.576Z,116
2017-04-21T04:25:41.482Z,124
2017-04-21T04:26:51.029Z,132
2017-04-21T04:27:59.933Z,136
2017-04-21T04:29:08.836Z,144
2017-04-21T04:30:18.073Z,152
2017-04-21T04:31:26.988Z,160
2017-04-21T04:32:35.892Z,168
2017-04-21T04:33:44.785Z,180
2017-04-21T04:34:54.008Z,188
2017-04-21T04:36:02.910Z,196
2017-04-21T04:37:11.500Z,220
2017-04-21T04:38:20.458Z,236
2017-04-21T04:39:29.359Z,252
2017-04-21T04:40:38.261Z,272
2017-04-21T04:41:47.421Z,292
2017-04-21T04:42:56.510Z,292
2017-04-21T04:44:05.415Z,300
2017-04-21T04:45:15.188Z,312
2017-04-21T04:46:23.951Z,320
2017-04-21T04:47:32.535Z,332
2017-04-21T04:48:41.765Z,336
2017-04-21T04:49:51.305Z,344
2017-04-21T04:50:59.893Z,364
2017-04-21T04:52:08.795Z,400
2017-04-21T04:53:18.022Z,424
2017-04-21T04:54:27.240Z,436
2017-04-21T04:55:35.830Z,444
2017-04-21T04:56:45.365Z,476
2017-04-21T04:57:53.951Z,492
2017-04-21T04:59:03.502Z,508
2017-04-21T05:00:12.401Z,524
2017-04-21T05:01:21.619Z,520
2017-04-21T05:02:30.840Z,532
2017-04-21T05:03:40.065Z,548
2017-04-21T05:04:48.968Z,580
2017-04-21T05:05:58.191Z,632
2017-04-21T05:07:06.774Z,656
2017-04-21T05:08:15.995Z,672
2017-04-21T05:09:25.231Z,664
2017-04-21T05:10:33.817Z,680
2017-04-21T05:11:43.356Z,668
2017-04-21T05:12:52.267Z,584
2017-04-21T05:14:01.808Z,572
2017-04-21T05:15:11.029Z,636
2017-04-21T05:16:19.932Z,732
2017-04-21T05:17:29.161Z,808
2017-04-21T05:18:38.697Z,780
2017-04-21T05:19:47.915Z,772
2017-04-21T05:20:57.453Z,804
2017-04-21T05:22:06.997Z,916
2017-04-21T05:23:15.906Z,1020
2017-04-21T05:24:24.828Z,1044
2017-04-21T05:25:33.781Z,1084
2017-04-21T05:26:42.370Z,1132
2017-04-21T05:27:51.922Z,1196
2017-04-21T05:29:00.830Z,1276
2017-04-21T05:30:09.844Z,1332
2017-04-21T05:31:19.387Z,1384
2017-04-21T05:32:29.246Z,1404
2017-04-21T05:33:38.471Z,1432
2017-04-21T05:34:47.060Z,1440
2017-04-21T05:35:56.606Z,1468
2017-04-21T05:37:05.852Z,1496
2017-04-21T05:38:17.485Z,1528
2017-04-21T05:39:26.067Z,1560
2017-04-21T05:40:35.605Z,1612
2017-04-21T05:41:44.516Z,1668
2017-04-21T05:42:53.923Z,1720
2017-04-21T05:44:02.975Z,1780
2017-04-21T05:45:11.976Z,1836
2017-04-21T05:46:20.996Z,1880
2017-04-21T05:47:29.892Z,1924
2017-04-21T05:48:38.612Z,1972
2017-04-21T05:49:47.602Z,1944
2017-04-21T05:50:56.858Z,1872
2017-04-21T05:52:06.196Z,1784
2017-04-21T05:53:15.737Z,1792
2017-04-21T05:54:24.952Z,1748
2017-04-21T05:55:34.494Z,1664
2017-04-21T05:56:43.385Z,1620
2017-04-21T05:57:51.975Z,1584
2017-04-21T05:59:00.873Z,1544
2017-04-21T06:00:10.102Z,1528
2017-04-21T06:01:19.323Z,1428
2017-04-21T06:02:28.228Z,1452
2017-04-21T06:03:37.131Z,1416
2017-04-21T06:04:46.349Z,1264
2017-04-21T06:05:55.247Z,1268
2017-04-21T06:07:04.153Z,1252
2017-04-21T06:08:13.393Z,1248
2017-04-21T06:09:24.623Z,1212
2017-04-21T06:10:33.566Z,1284
2017-04-21T06:11:42.475Z,1400
2017-04-21T06:12:51.388Z,1452
2017-04-21T06:14:00.926Z,1436
2017-04-21T06:15:09.520Z,1420
2017-04-21T06:16:18.418Z,1344
2017-04-21T06:17:27.641Z,1256
2017-04-21T06:18:36.863Z,1200
2017-04-21T06:19:46.407Z,1184
2017-04-21T06:20:55.315Z,1292
2017-04-21T06:22:04.218Z,1356
2017-04-21T06:23:13.440Z,1404
2017-04-21T06:24:22.344Z,1508
2017-04-21T06:25:31.566Z,1560
2017-04-21T06:26:40.778Z,1620
2017-04-21T06:27:49.688Z,1616
2017-04-21T06:28:59.232Z,1540
2017-04-21T06:30:08.445Z,1416
2017-04-21T06:31:17.991Z,1280
2017-04-21T06:32:26.908Z,1280
2017-04-21T06:33:36.146Z,1300
2017-04-21T06:34:44.741Z,1312
2017-04-21T06:35:53.641Z,1332
2017-04-21T06:37:02.544Z,1396
2017-04-21T06:38:11.443Z,1556
2017-04-21T06:39:20.344Z,1620
2017-04-21T06:40:29.570Z,1628
2017-04-21T06:41:38.795Z,1504
2017-04-21T06:42:47.691Z,1552
2017-04-21T06:43:56.281Z,1888
2017-04-21T06:45:05.177Z,2116
2017-04-21T06:46:14.094Z,2224
2017-04-21T06:47:22.685Z,2376
2017-04-21T06:48:31.915Z,2640
2017-04-21T06:49:41.289Z,2688
2017-04-21T06:50:50.510Z,2716
2017-04-21T06:51:59.724Z,2600
2017-04-21T06:53:08.635Z,2384
2017-04-21T06:54:17.536Z,2228
2017-04-21T06:55:26.564Z,2144
2017-04-21T06:56:35.466Z,1880
2017-04-21T06:57:44.380Z,1616
2017-04-21T06:58:53.610Z,1496
2017-04-21T07:00:02.532Z,1588
2017-04-21T07:01:11.334Z,1732
2017-04-21T07:02:20.276Z,1856
2017-04-21T07:03:29.495Z,1776
2017-04-21T07:04:39.293Z,1648
2017-04-21T07:05:48.562Z,1500
2017-04-21T07:06:57.466Z,1416
2017-04-21T07:08:06.371Z,1444
2017-04-21T07:09:15.594Z,1372
2017-04-21T07:10:25.140Z,1324
2017-04-21T07:11:33.740Z,1492
2017-04-21T07:12:42.327Z,1588
2017-04-21T07:13:51.247Z,1576
2017-04-21T07:15:01.106Z,1632
2017-04-21T07:16:10.347Z,1736
2017-04-21T07:17:18.954Z,1776
2017-04-21T07:18:27.539Z,1788
2017-04-21T07:19:36.181Z,1864
2017-04-21T07:20:44.867Z,1956
2017-04-21T07:21:54.087Z,2092
2017-04-21T07:23:03.000Z,2248
2017-04-21T07:24:11.613Z,2344
2017-04-21T07:25:20.513Z,2420
2017-04-21T07:26:30.342Z,2532
2017-04-21T07:27:38.932Z,2700
2017-04-21T07:28:47.843Z,3044
2017-04-21T07:29:57.109Z,3408
2017-04-21T07:31:06.702Z,3648
2017-04-21T07:32:15.922Z,3796
2017-04-21T07:33:25.150Z,4052
2017-04-21T07:34:34.384Z,4368
2017-04-21T07:36:06.473Z,4948
2017-04-21T07:37:38.647Z,5796
2017-04-21T07:38:47.639Z,6236
2017-04-21T07:39:56.897Z,6652
2017-04-21T07:41:36.202Z,6992
2017-04-21T07:42:44.982Z,7208
2017-04-21T07:43:54.337Z,7924
2017-04-21T07:45:03.247Z,8448
2017-04-21T07:46:12.155Z,8560
2017-04-21T07:47:21.073Z,8704
2017-04-21T07:48:30.042Z,8648
2017-04-21T07:49:38.966Z,9140
2017-04-21T07:50:48.186Z,9768
2017-04-21T07:51:57.121Z,9884
2017-04-21T07:53:06.398Z,10116
2017-04-21T07:54:15.625Z,10324
2017-04-21T07:55:24.222Z,10112
2017-04-21T07:56:33.444Z,10076
2017-04-21T07:57:42.344Z,10728
2017-04-21T07:58:51.016Z,11116
2017-04-21T08:01:56.800Z,10052
2017-04-21T08:03:06.933Z,10060
2017-04-21T08:04:16.156Z,10084
2017-04-21T08:05:24.743Z,11248
2017-04-21T08:06:33.334Z,12972
2017-04-21T08:07:42.230Z,13728
2017-04-21T08:08:50.828Z,12660
2017-04-21T08:10:00.374Z,11220
2017-04-21T08:11:09.282Z,10292
2017-04-21T08:12:18.193Z,10648
2017-04-21T08:13:27.061Z,10792
2017-04-21T08:14:36.617Z,11360
2017-04-21T08:15:45.670Z,11996
2017-04-21T08:16:54.967Z,12516
2017-04-21T08:18:03.871Z,13668
2017-04-21T08:19:12.780Z,15188
2017-04-21T08:20:22.403Z,15168
2017-04-21T08:21:31.981Z,12032
2017-04-21T08:22:41.481Z,10300
2017-04-21T08:23:50.136Z,11280
2017-04-21T08:24:59.318Z,12912
2017-04-21T08:26:08.416Z,15292
2017-04-21T08:27:18.204Z,15720
2017-04-21T08:28:27.430Z,15668
2017-04-21T08:29:37.375Z,14672
2017-04-21T08:30:47.000Z,12768
2017-04-21T08:31:56.155Z,12424
2017-04-21T08:33:05.614Z,13408
2017-04-21T08:34:14.279Z,13960
2017-04-21T08:35:23.553Z,13980
2017-04-21T08:36:32.161Z,14244
2017-04-21T08:37:40.805Z,13684
2017-04-21T08:38:49.723Z,13268
2017-04-21T08:39:59.020Z,12912
2017-04-21T08:41:07.929Z,12676
2017-04-21T08:42:17.159Z,12356
2017-04-21T08:43:27.020Z,11952
2017-04-21T08:44:35.612Z,11788
2017-04-21T08:45:44.841Z,11304
2017-04-21T08:46:53.461Z,10776
2017-04-21T08:48:03.138Z,10504
2017-04-21T08:49:13.007Z,10480
2017-04-21T08:50:22.418Z,10596
2017-04-21T08:51:32.005Z,10620
2017-04-21T08:52:40.918Z,10240
2017-04-21T08:53:49.840Z,9696
2017-04-21T08:54:59.103Z,9628
2017-04-21T08:56:08.341Z,9644
2017-04-21T08:57:17.245Z,9476
2017-04-21T08:58:26.787Z,9236
2017-04-21T08:59:35.717Z,8968
2017-04-21T09:00:44.307Z,8724
2017-04-21T09:01:53.215Z,8144
2017-04-21T09:03:02.440Z,7780
2017-04-21T09:04:11.356Z,7640
2017-04-21T09:05:20.271Z,7476
2017-04-21T09:06:29.497Z,7260
2017-04-21T09:07:38.408Z,6964
2017-04-21T09:08:47.005Z,6636
2017-04-21T09:09:56.107Z,6320
2017-04-21T09:11:05.366Z,6228
2017-04-21T09:12:14.282Z,6312
2017-04-21T09:13:23.505Z,6764
2017-04-21T09:14:32.809Z,7444
2017-04-21T09:15:41.721Z,7988
2017-04-21T09:16:50.399Z,8676
2017-04-21T09:17:59.346Z,9140
2017-04-21T09:19:08.907Z,9708
2017-04-21T09:20:17.510Z,10496
2017-04-21T09:21:27.351Z,11160
2017-04-21T09:22:36.778Z,11632
2017-04-21T09:23:46.010Z,11672
2017-04-21T09:24:54.821Z,10920
2017-04-21T09:26:03.790Z,10408
2017-04-21T09:27:13.335Z,10024
2017-04-21T09:28:22.239Z,9960
2017-04-21T09:29:31.230Z,10072
2017-04-21T09:31:30.088Z,10416
2017-04-21T09:32:59.553Z,10976
2017-04-21T09:35:40.328Z,11976
2017-04-21T09:37:51.609Z,12076
2017-04-21T09:39:00.540Z,12252
2017-04-21T09:40:09.476Z,12064
2017-04-21T09:41:18.723Z,11800
2017-04-21T09:42:43.674Z,11024
2017-04-21T09:44:16.186Z,10152
2017-04-21T09:45:25.460Z,9676
2017-04-21T09:46:34.716Z,9664
2017-04-21T09:47:43.623Z,9232
2017-04-21T09:48:52.530Z,9388
2017-04-21T09:50:01.192Z,10340
2017-04-21T09:53:36.499Z,12296
2017-04-21T10:02:45.227Z,13172
2017-04-21T10:08:35.308Z,12980
2017-04-21T10:09:44.249Z,12880
2017-04-21T10:10:53.610Z,12808
2017-04-21T10:12:02.850Z,12636
2017-04-21T10:13:11.772Z,12248
2017-04-21T10:14:21.007Z,12336
2017-04-21T10:15:30.237Z,12092
2017-04-21T10:16:39.164Z,11980
2017-04-21T10:17:48.399Z,11784
2017-04-21T10:18:57.632Z,11432
2017-04-21T10:20:07.182Z,11204
2017-04-21T10:21:16.730Z,11088
2017-04-21T10:22:25.643Z,11172
2017-04-21T10:23:34.876Z,11264
2017-04-21T10:24:44.109Z,11404
2017-04-21T10:25:53.014Z,11672
2017-04-21T10:27:01.922Z,11980
2017-04-21T10:28:11.470Z,12132
2017-04-21T10:29:20.691Z,11920
2017-04-21T10:30:30.119Z,11640
2017-04-21T10:31:39.340Z,11384
2017-04-21T10:32:49.206Z,11344
2017-04-21T10:33:58.761Z,11496
2017-04-21T10:35:07.675Z,11736
2017-04-21T10:36:16.905Z,11696
2017-04-21T10:37:26.457Z,11200
2017-04-21T10:38:35.692Z,10868
2017-04-21T10:39:44.636Z,11156
2017-04-21T10:40:53.543Z,11552
2017-04-21T10:42:02.452Z,12156
2017-04-21T10:43:12.319Z,12508
2017-04-21T10:44:21.587Z,12576
2017-04-21T10:45:30.696Z,12668
2017-04-21T10:46:39.278Z,12796
2017-04-21T10:47:49.397Z,12772
2017-04-21T10:48:58.167Z,12712
2017-04-21T10:50:07.795Z,12680
2017-04-21T10:51:17.134Z,12832
2017-04-21T10:52:25.726Z,12928
2017-04-21T10:53:34.964Z,12952
2017-04-21T10:54:43.593Z,13156
2017-04-21T10:55:52.572Z,13408
2017-04-21T10:57:02.159Z,13688
2017-04-21T10:58:10.774Z,13888
2017-04-21T10:59:19.701Z,14056
2017-04-21T11:00:29.760Z,14260
2017-04-21T11:01:38.672Z,14472
2017-04-21T11:02:47.264Z,14680
2017-04-21T11:03:56.821Z,14848
2017-04-21T11:05:05.749Z,14820
2017-04-21T11:06:14.974Z,14900
2017-04-21T11:07:23.571Z,15040
2017-04-21T11:08:32.815Z,15176
2017-04-21T11:09:42.054Z,15312
2017-04-21T11:10:50.969Z,15444
2017-04-21T11:12:00.515Z,15660
2017-04-21T11:13:09.744Z,15716
2017-04-21T11:14:19.292Z,15668
2017-04-21T11:15:28.521Z,15640
2017-04-21T11:16:37.424Z,15524
2017-04-21T11:17:46.015Z,15372
2017-04-21T11:18:54.930Z,15284
2017-04-21T11:20:04.249Z,15232
2017-04-21T11:21:13.483Z,15184
2017-04-21T11:22:23.030Z,15108
2017-04-21T11:23:31.939Z,14964
2017-04-21T11:24:41.489Z,14888
2017-04-21T11:25:50.475Z,14776
2017-04-21T11:26:59.788Z,14636
2017-04-21T11:28:09.021Z,14576
2017-04-21T11:29:18.294Z,14476
2017-04-21T11:30:27.335Z,14364
2017-04-21T11:31:36.282Z,14268
2017-04-21T11:32:45.220Z,14204
2017-04-21T11:33:54.319Z,14132
2017-04-21T11:35:02.944Z,14188
2017-04-21T11:36:12.020Z,14272
2017-04-21T11:37:21.174Z,14344
2017-04-21T11:38:30.723Z,14372
2017-04-21T11:39:39.846Z,14416
2017-04-21T11:40:48.751Z,14516
2017-04-21T11:41:57.684Z,14572
2017-04-21T11:43:06.915Z,14596
2017-04-21T11:44:16.128Z,14576
2017-04-21T11:45:25.823Z,14660
2017-04-21T11:46:34.754Z,14820
2017-04-21T11:47:44.315Z,14888
2017-04-21T11:48:53.866Z,14956
2017-04-21T11:50:02.787Z,14968
2017-04-21T11:51:11.388Z,14844
2017-04-21T11:52:20.535Z,14680
2017-04-21T11:53:29.773Z,14140
2017-04-21T11:54:39.330Z,14612
2017-04-21T11:55:47.953Z,14444
2017-04-21T11:56:56.999Z,14148
2017-04-21T11:58:06.011Z,14040
2017-04-21T11:59:15.026Z,13972
2017-04-21T12:00:24.527Z,13660
2017-04-21T12:01:34.071Z,13568
2017-04-21T12:02:43.882Z,13492
2017-04-21T12:03:53.131Z,14228
2017-04-21T12:05:02.044Z,14968
2017-04-21T12:06:11.268Z,15180
2017-04-21T12:07:19.870Z,15216
2017-04-21T12:08:29.102Z,15260
2017-04-21T12:09:38.331Z,15316
2017-04-21T12:10:47.860Z,15252
2017-04-21T12:11:57.098Z,15112
2017-04-21T12:13:05.689Z,15032
2017-04-21T12:14:15.595Z,14904
2017-04-21T12:15:24.190Z,14940
2017-04-21T12:16:33.740Z,15116
2017-04-21T12:17:42.654Z,15176
2017-04-21T12:18:51.279Z,15220
2017-04-21T12:20:00.527Z,15204
2017-04-21T12:21:09.437Z,15132
2017-04-21T12:22:18.978Z,15144
2017-04-21T12:23:28.254Z,15180
2017-04-21T12:24:37.169Z,15192
2017-04-21T12:25:47.027Z,15236
2017-04-21T12:26:56.669Z,14892
2017-04-21T12:28:05.581Z,14840
2017-04-21T12:29:15.118Z,14868
2017-04-21T12:30:24.674Z,14180
2017-04-21T12:31:33.274Z,13544
2017-04-21T12:32:43.446Z,13912
2017-04-21T12:33:53.928Z,14480
2017-04-21T12:35:03.176Z,15056
2017-04-21T12:36:12.406Z,15324
2017-04-21T12:37:21.345Z,15320
2017-04-21T12:38:30.258Z,14388
2017-04-21T12:39:38.857Z,13216
2017-04-21T12:40:47.774Z,12396
2017-04-21T12:41:57.002Z,11580
2017-04-21T12:43:05.907Z,10148
2017-04-21T12:44:15.149Z,8720
2017-04-21T12:45:24.687Z,7864
2017-04-21T12:46:33.277Z,6720
2017-04-21T12:47:42.195Z,5696
2017-04-21T12:48:51.493Z,5276
2017-04-21T12:50:01.308Z,5788
2017-04-21T12:51:10.544Z,6356
2017-04-21T12:52:19.459Z,6308
2017-04-21T12:53:28.679Z,6344
2017-04-21T12:54:37.907Z,6036
2017-04-21T12:55:46.818Z,5248
2017-04-21T12:56:56.369Z,4496
2017-04-21T12:58:05.280Z,4140
2017-04-21T12:59:14.187Z,4824
2017-04-21T13:00:23.412Z,6124
2017-04-21T13:01:32.640Z,7048
2017-04-21T13:02:41.546Z,7684
2017-04-21T13:03:50.143Z,8044
2017-04-21T13:04:59.067Z,8256
2017-04-21T13:06:08.298Z,8180
2017-04-21T13:07:18.100Z,7640
2017-04-21T13:08:27.905Z,6824
2017-04-21T13:09:37.136Z,6492
2017-04-21T13:10:46.207Z,5876
2017-04-21T13:11:55.429Z,5068
2017-04-21T13:13:04.341Z,5124
2017-04-21T13:14:13.568Z,5132
2017-04-21T13:15:22.175Z,5728
2017-04-21T13:16:31.406Z,6300
2017-04-21T13:17:40.002Z,6692
2017-04-21T13:18:49.232Z,6536
2017-04-21T13:19:58.167Z,6620
2017-04-21T13:21:07.397Z,7008
2017-04-21T13:22:15.991Z,6684
2017-04-21T13:23:25.224Z,6304
2017-04-21T13:24:34.762Z,5888
2017-04-21T13:25:43.992Z,4972
2017-04-21T13:26:53.439Z,4128
2017-04-21T13:28:02.757Z,3688
2017-04-21T13:29:11.996Z,3524
2017-04-21T13:30:21.083Z,3196
2017-04-21T13:31:30.672Z,3016
2017-04-21T13:32:40.260Z,2980
2017-04-21T13:33:48.849Z,3052
2017-04-21T13:34:57.782Z,3204
2017-04-21T13:36:06.380Z,3268
2017-04-21T13:37:14.975Z,3356
2017-04-21T13:38:24.528Z,3464
2017-04-21T13:39:33.122Z,3528
2017-04-21T13:40:41.712Z,3644
2017-04-21T13:41:51.260Z,3960
2017-04-21T13:43:00.171Z,4244
2017-04-21T13:44:09.432Z,4572
2017-04-21T13:45:18.657Z,4628
2017-04-21T13:46:27.561Z,4440
2017-04-21T13:47:36.473Z,3908
2017-04-21T13:48:45.383Z,3648
2017-04-21T13:49:53.985Z,5012
2017-04-21T13:51:03.213Z,6464
2017-04-21T13:52:12.135Z,6260
2017-04-21T13:53:21.068Z,5160
2017-04-21T13:54:30.624Z,4648
2017-04-21T13:55:39.859Z,5092
2017-04-21T13:56:48.765Z,6396
2017-04-21T13:57:58.307Z,8692
2017-04-21T13:59:07.297Z,10568
2017-04-21T14:00:16.841Z,11504
2017-04-21T14:01:25.733Z,11284
2017-04-21T14:02:34.693Z,10312
2017-04-21T14:03:43.603Z,8728
2017-04-21T14:04:52.832Z,7236
2017-04-21T14:06:01.748Z,5808
2017-04-21T14:07:10.683Z,5100
2017-04-21T14:08:19.281Z,4680
2017-04-21T14:09:28.188Z,4648
2017-04-21T14:10:37.428Z,4776
2017-04-21T14:11:46.672Z,4608
2017-04-21T14:12:55.904Z,4356
2017-04-21T14:14:05.468Z,4244
2017-04-21T14:15:14.707Z,4416
2017-04-21T14:16:24.026Z,4756
2017-04-21T14:17:33.142Z,4844
2017-04-21T14:18:42.377Z,4660
2017-04-21T14:19:51.611Z,4904
2017-04-21T14:21:00.531Z,5464
2017-04-21T14:22:09.759Z,5356
2017-04-21T14:23:18.356Z,4884
2017-04-21T14:24:27.898Z,4640
2017-04-21T14:25:36.826Z,4572
2017-04-21T14:26:45.734Z,5064
2017-04-21T14:27:55.270Z,5556
2017-04-21T14:29:04.825Z,5492
2017-04-21T14:30:14.052Z,5412
2017-04-21T14:31:22.957Z,5380
2017-04-21T14:32:32.497Z,5940
2017-04-21T14:33:41.091Z,6700
2017-04-21T14:34:50.030Z,6900
2017-04-21T14:35:59.257Z,6692
2017-04-21T14:37:08.171Z,6552
2017-04-21T14:38:17.397Z,6592
2017-04-21T14:39:25.979Z,7100
2017-04-21T14:40:34.894Z,7780
2017-04-21T14:41:43.798Z,8220
2017-04-21T14:42:53.351Z,8408
2017-04-21T14:44:01.948Z,8632
2017-04-21T14:45:10.874Z,8912
2017-04-21T14:46:20.096Z,9060
2017-04-21T14:47:29.011Z,9076
2017-04-21T14:48:38.414Z,9044
2017-04-21T14:49:47.963Z,9004
2017-04-21T14:50:57.706Z,8984
2017-04-21T14:52:07.344Z,9004
2017-04-21T14:53:16.917Z,8692
2017-04-21T14:54:25.829Z,8108
2017-04-21T14:55:35.063Z,7640
2017-04-21T14:56:44.541Z,7016
2017-04-21T14:57:53.459Z,6336
2017-04-21T14:59:03.029Z,5516
2017-04-21T15:00:11.945Z,4708
2017-04-21T15:01:21.500Z,4156
2017-04-21T15:02:31.051Z,3952
2017-04-21T15:03:40.292Z,3824
2017-04-21T15:04:49.204Z,3724
2017-04-21T15:05:58.108Z,3640
2017-04-21T15:07:07.022Z,3472
2017-04-21T15:08:16.603Z,3516
2017-04-21T15:09:26.177Z,3748
2017-04-21T15:10:35.528Z,4004
2017-04-21T15:11:44.142Z,4424
2017-04-21T15:12:53.608Z,4676
2017-04-21T15:14:02.202Z,4908
2017-04-21T15:15:11.445Z,5060
2017-04-21T15:16:20.362Z,5196
2017-04-21T15:17:29.273Z,5360
2017-04-21T15:18:38.623Z,5324
2017-04-21T15:19:47.857Z,4896
2017-04-21T15:20:57.000Z,4416
2017-04-21T15:22:05.991Z,4392
2017-04-21T15:23:15.224Z,4272
2017-04-21T15:24:23.994Z,4144
2017-04-21T15:25:32.901Z,4536
2017-04-21T15:26:41.819Z,4692
2017-04-21T15:27:51.052Z,3880
2017-04-21T15:29:00.359Z,3012
2017-04-21T15:30:09.057Z,2840
2017-04-21T15:31:17.962Z,2880
2017-04-21T15:32:27.294Z,2584
2017-04-21T15:33:36.224Z,2296
2017-04-21T15:34:45.128Z,2152
2017-04-21T15:35:54.693Z,1936
2017-04-21T15:37:03.938Z,1812
2017-04-21T15:38:13.489Z,1612
2017-04-21T15:39:22.229Z,1408
2017-04-21T15:40:31.287Z,1296
2017-04-21T15:41:40.257Z,1284
2017-04-21T15:42:49.487Z,1364
2017-04-21T15:43:58.403Z,1440
2017-04-21T15:45:07.632Z,1520
2017-04-21T15:46:16.529Z,1604
2017-04-21T15:47:25.443Z,1692
2017-04-21T15:48:34.689Z,1804
2017-04-21T15:49:43.921Z,1880
2017-04-21T15:50:53.470Z,1880
2017-04-21T15:52:02.709Z,1796
2017-04-21T15:53:11.955Z,1768
2017-04-21T15:54:20.895Z,1764
2017-04-21T15:55:30.472Z,1792
2017-04-21T15:56:39.087Z,1872
2017-04-21T15:57:48.263Z,2028
2017-04-21T15:58:56.871Z,2144
2017-04-21T16:00:05.811Z,2144
2017-04-21T16:01:15.038Z,2096
2017-04-21T16:02:23.639Z,2148